Alessandro F — IBVQ — position and weather

sailwx.info

Track history (hours):
 
Tides and Currents Weather Stations Pressure Air Temp Water Temp Dewpoint Dewpoint Depression Visibility Wind Speed Wind Dir Waves Ship Positions

Alessandro F

Last reported at 2017-Jan-21 10:21 UTC. Time now 2017-Jan-22 08:03 UTC.
Position N 43°09' E 010°04'.

Length 100 m; draft 5.3 m.

Type: Ship. MMSI: 247046400.

Date/timePositionNaut miles runAvg speedWind from/ knotsBaromVisibWave heightAir tempDewpointWater temp
2017-Jan-21 10:21N 43°09' E 010°04'1013.2
2017-Jan-21 09:33N 43°19' E 010°08'1312.6
2017-Jan-21 08:33N 43°31' E 010°11'7 6.6
2017-Jan-21 07:31N 43°35' E 010°19'0 0.0
2017-Jan-21 06:31N 43°35' E 010°19'0 0.0
2017-Jan-21 05:31N 43°35' E 010°19'0 0.0
2017-Jan-21 04:31N 43°35' E 010°19'0 0.0
2017-Jan-21 03:28N 43°35' E 010°19'0 0.0
2017-Jan-21 02:31N 43°35' E 010°19'0 0.0
2017-Jan-21 01:28N 43°35' E 010°19'0 0.0
2017-Jan-21 00:28N 43°35' E 010°19'0 0.0
2017-Jan-20 23:28N 43°35' E 010°19'0 0.0
2017-Jan-20 22:28N 43°35' E 010°19'0 0.0
2017-Jan-20 21:31N 43°35' E 010°19'0 0.0
2017-Jan-20 20:28N 43°35' E 010°19'0 0.0
2017-Jan-20 19:31N 43°35' E 010°19'0 0.0
2017-Jan-20 18:22N 43°35' E 010°19'0 0.0
2017-Jan-20 17:28N 43°35' E 010°19'0 0.0
2017-Jan-20 16:25N 43°35' E 010°19'1 1.4
2017-Jan-20 15:33N 43°34' E 010°18'4 4.3
2017-Jan-20 14:33N 43°30' E 010°17'0 0.2
2017-Jan-20 13:33N 43°29' E 010°17'0 0.0
2017-Jan-20 12:33N 43°29' E 010°17'0 0.0
2017-Jan-20 11:33N 43°29' E 010°17'0 0.0
2017-Jan-20 10:33N 43°29' E 010°17'0 0.0
2017-Jan-20 09:33N 43°29' E 010°17'0 0.0
2017-Jan-20 08:33N 43°29' E 010°17'0 0.0
2017-Jan-20 07:33N 43°29' E 010°17'4 4.0
2017-Jan-20 06:34N 43°26' E 010°15'1212.1
2017-Jan-20 05:33N 43°14' E 010°10'35711.9
2017-Jan-18 23:31N 38°47' E 015°24'1413.1
2017-Jan-18 22:29N 38°35' E 015°32'1213.2
2017-Jan-18 21:33N 38°24' E 015°39'1110.5
2017-Jan-18 20:33N 38°13' E 015°37'1110.9
2017-Jan-18 19:33N 38°03' E 015°35'1312.7
2017-Jan-18 18:33N 37°50' E 015°31'  
2017-Jan-15 09:23N 36°39' E 014°40'1012.0
2017-Jan-15 08:33N 36°42' E 014°28'1111.5
2017-Jan-15 07:33N 36°47' E 014°15'1212.0
2017-Jan-15 06:33N 36°52' E 014°01'1212.4
2017-Jan-15 05:33N 36°58' E 013°48'24512.2
2017-Jan-14 09:33N 38°60' E 009°18'1313.1
2017-Jan-14 08:32N 39°06' E 009°03'1 1.1
2017-Jan-14 07:32N 39°06' E 009°02'0 0.0
2017-Jan-14 06:32N 39°06' E 009°02'0 0.1
2017-Jan-14 05:32N 39°06' E 009°02'0 0.4
2017-Jan-14 04:33N 39°06' E 009°02'0 0.0
2017-Jan-14 03:33N 39°06' E 009°02'0 0.0
2017-Jan-13 23:33N 39°06' E 009°02'0 0.0
2017-Jan-13 22:33N 39°06' E 009°02'0 0.0
2017-Jan-13 21:33N 39°06' E 009°02'0 0.0
2017-Jan-13 20:33N 39°06' E 009°02'0 0.0
2017-Jan-13 19:33N 39°06' E 009°02'0 0.0
2017-Jan-13 18:33N 39°06' E 009°02'0 0.0
2017-Jan-13 17:33N 39°06' E 009°02'0 0.0
2017-Jan-13 16:33N 39°06' E 009°02'0 0.0
2017-Jan-13 15:33N 39°06' E 009°02'0 0.0
2017-Jan-13 14:33N 39°06' E 009°02'0 0.0
2017-Jan-13 13:33N 39°06' E 009°02'0 0.0
2017-Jan-13 12:33N 39°06' E 009°02'0 0.0
2017-Jan-13 11:33N 39°06' E 009°02'0 0.0
2017-Jan-13 10:33N 39°06' E 009°02'2 2.5
2017-Jan-13 09:33N 39°06' E 009°05'0 0.0
2017-Jan-13 08:33N 39°06' E 009°05'0 0.0
2017-Jan-13 07:33N 39°06' E 009°05'0 0.0
2017-Jan-13 06:33N 39°06' E 009°05'0 0.0
2017-Jan-13 05:33N 39°06' E 009°05'0 0.0
2017-Jan-13 04:33N 39°06' E 009°05'0 0.0
2017-Jan-13 03:33N 39°06' E 009°05'0 0.0
2017-Jan-13 02:33N 39°06' E 009°05'0 0.0
2017-Jan-13 01:33N 39°06' E 009°05'0 0.0
2017-Jan-13 00:33N 39°06' E 009°05'0 0.0
2017-Jan-12 23:33N 39°06' E 009°05'0 0.0
2017-Jan-12 22:33N 39°06' E 009°05'0 0.0
2017-Jan-12 21:33N 39°06' E 009°05'0 0.0
2017-Jan-12 20:33N 39°06' E 009°05'0 0.0
2017-Jan-12 19:33N 39°06' E 009°05'0 0.0
2017-Jan-12 18:33N 39°06' E 009°05'0 0.0
2017-Jan-12 17:33N 39°06' E 009°05'0 0.1
2017-Jan-12 16:33N 39°06' E 009°05'0 0.1
2017-Jan-12 15:33N 39°06' E 009°05'0 0.0
2017-Jan-12 14:33N 39°06' E 009°05'0 0.0
2017-Jan-12 13:33N 39°06' E 009°05'0 0.0
2017-Jan-12 12:33N 39°06' E 009°05'0 0.0
2017-Jan-12 11:33N 39°06' E 009°05'0 0.0
2017-Jan-12 10:33N 39°06' E 009°05'0 0.0
2017-Jan-12 09:33N 39°06' E 009°05'3 3.3
2017-Jan-12 08:32N 39°05' E 009°08'1312.8
2017-Jan-12 07:33N 38°58' E 009°22'23911.9
2017-Jan-11 11:25N 37°05' E 013°50'  
Track history (hours):
 
Tides and Currents Weather Stations Pressure Air Temp Water Temp Dewpoint Dewpoint Depression Visibility Wind Speed Wind Dir Waves Ship Positions

Alessandro F

Last reported at 2017-Jan-21 10:21 UTC. Time now 2017-Jan-22 08:03 UTC.
Position N 43°09' E 010°04'.

Length 100 m; draft 5.3 m.

Type: Ship. MMSI: 247046400.

Date/timePositionNaut miles runAvg speedWind from/ knotsBaromVisibWave heightAir tempDewpointWater temp
2017-Jan-21 10:21N 43°09' E 010°04'1013.2
2017-Jan-21 09:33N 43°19' E 010°08'1312.6
2017-Jan-21 08:33N 43°31' E 010°11'7 6.6
2017-Jan-21 07:31N 43°35' E 010°19'0 0.0
2017-Jan-21 06:31N 43°35' E 010°19'0 0.0
2017-Jan-21 05:31N 43°35' E 010°19'0 0.0
2017-Jan-21 04:31N 43°35' E 010°19'0 0.0
2017-Jan-21 03:28N 43°35' E 010°19'0 0.0
2017-Jan-21 02:31N 43°35' E 010°19'0 0.0
2017-Jan-21 01:28N 43°35' E 010°19'0 0.0
2017-Jan-21 00:28N 43°35' E 010°19'0 0.0
2017-Jan-20 23:28N 43°35' E 010°19'0 0.0
2017-Jan-20 22:28N 43°35' E 010°19'0 0.0
2017-Jan-20 21:31N 43°35' E 010°19'0 0.0
2017-Jan-20 20:28N 43°35' E 010°19'0 0.0
2017-Jan-20 19:31N 43°35' E 010°19'0 0.0
2017-Jan-20 18:22N 43°35' E 010°19'0 0.0
2017-Jan-20 17:28N 43°35' E 010°19'0 0.0
2017-Jan-20 16:25N 43°35' E 010°19'1 1.4
2017-Jan-20 15:33N 43°34' E 010°18'4 4.3
2017-Jan-20 14:33N 43°30' E 010°17'0 0.2
2017-Jan-20 13:33N 43°29' E 010°17'0 0.0
2017-Jan-20 12:33N 43°29' E 010°17'0 0.0
2017-Jan-20 11:33N 43°29' E 010°17'0 0.0
2017-Jan-20 10:33N 43°29' E 010°17'0 0.0
2017-Jan-20 09:33N 43°29' E 010°17'0 0.0
2017-Jan-20 08:33N 43°29' E 010°17'0 0.0
2017-Jan-20 07:33N 43°29' E 010°17'4 4.0
2017-Jan-20 06:34N 43°26' E 010°15'1212.1
2017-Jan-20 05:33N 43°14' E 010°10'35711.9
2017-Jan-18 23:31N 38°47' E 015°24'1413.1
2017-Jan-18 22:29N 38°35' E 015°32'1213.2
2017-Jan-18 21:33N 38°24' E 015°39'1110.5
2017-Jan-18 20:33N 38°13' E 015°37'1110.9
2017-Jan-18 19:33N 38°03' E 015°35'1312.7
2017-Jan-18 18:33N 37°50' E 015°31'  
2017-Jan-15 09:23N 36°39' E 014°40'1012.0
2017-Jan-15 08:33N 36°42' E 014°28'1111.5
2017-Jan-15 07:33N 36°47' E 014°15'1212.0
2017-Jan-15 06:33N 36°52' E 014°01'1212.4
2017-Jan-15 05:33N 36°58' E 013°48'24512.2
2017-Jan-14 09:33N 38°60' E 009°18'1313.1
2017-Jan-14 08:32N 39°06' E 009°03'1 1.1
2017-Jan-14 07:32N 39°06' E 009°02'0 0.0
2017-Jan-14 06:32N 39°06' E 009°02'0 0.1
2017-Jan-14 05:32N 39°06' E 009°02'0 0.4
2017-Jan-14 04:33N 39°06' E 009°02'0 0.0
2017-Jan-14 03:33N 39°06' E 009°02'0 0.0
2017-Jan-13 23:33N 39°06' E 009°02'0 0.0
2017-Jan-13 22:33N 39°06' E 009°02'0 0.0
2017-Jan-13 21:33N 39°06' E 009°02'0 0.0
2017-Jan-13 20:33N 39°06' E 009°02'0 0.0
2017-Jan-13 19:33N 39°06' E 009°02'0 0.0
2017-Jan-13 18:33N 39°06' E 009°02'0 0.0
2017-Jan-13 17:33N 39°06' E 009°02'0 0.0
2017-Jan-13 16:33N 39°06' E 009°02'0 0.0
2017-Jan-13 15:33N 39°06' E 009°02'0 0.0
2017-Jan-13 14:33N 39°06' E 009°02'0 0.0
2017-Jan-13 13:33N 39°06' E 009°02'0 0.0
2017-Jan-13 12:33N 39°06' E 009°02'0 0.0
2017-Jan-13 11:33N 39°06' E 009°02'0 0.0
2017-Jan-13 10:33N 39°06' E 009°02'2 2.5
2017-Jan-13 09:33N 39°06' E 009°05'0 0.0
2017-Jan-13 08:33N 39°06' E 009°05'0 0.0
2017-Jan-13 07:33N 39°06' E 009°05'0 0.0
2017-Jan-13 06:33N 39°06' E 009°05'0 0.0
2017-Jan-13 05:33N 39°06' E 009°05'0 0.0
2017-Jan-13 04:33N 39°06' E 009°05'0 0.0
2017-Jan-13 03:33N 39°06' E 009°05'0 0.0
2017-Jan-13 02:33N 39°06' E 009°05'0 0.0
2017-Jan-13 01:33N 39°06' E 009°05'0 0.0
2017-Jan-13 00:33N 39°06' E 009°05'0 0.0
2017-Jan-12 23:33N 39°06' E 009°05'0 0.0
2017-Jan-12 22:33N 39°06' E 009°05'0 0.0
2017-Jan-12 21:33N 39°06' E 009°05'0 0.0
2017-Jan-12 20:33N 39°06' E 009°05'0 0.0
2017-Jan-12 19:33N 39°06' E 009°05'0 0.0
2017-Jan-12 18:33N 39°06' E 009°05'0 0.0
2017-Jan-12 17:33N 39°06' E 009°05'0 0.1
2017-Jan-12 16:33N 39°06' E 009°05'0 0.1
2017-Jan-12 15:33N 39°06' E 009°05'0 0.0
2017-Jan-12 14:33N 39°06' E 009°05'0 0.0
2017-Jan-12 13:33N 39°06' E 009°05'0 0.0
2017-Jan-12 12:33N 39°06' E 009°05'0 0.0
2017-Jan-12 11:33N 39°06' E 009°05'0 0.0
2017-Jan-12 10:33N 39°06' E 009°05'0 0.0
2017-Jan-12 09:33N 39°06' E 009°05'3 3.3
2017-Jan-12 08:32N 39°05' E 009°08'1312.8
2017-Jan-12 07:33N 38°58' E 009°22'23911.9
2017-Jan-11 11:25N 37°05' E 013°50'  

Dump ship's entire track history